Time;durP1;ratioP1;P1;durP2;ratioP2;P2;SDS_P1;SDS_P2;PMS_P1;PMS_P2;Temp;Humidity;BMP_temperature;BMP_pressure;BME280_temperature;BME280_humidity;BME280_pressure;Samples;Min_cycle;Max_cycle;Signal;HPM_P1;HPM_P2
2021/07/17 00:01:48;;;;;;;25.13;19.57;;;23.10;1.00;;;;;;5131398;27;20775;-58
2021/07/17 00:04:14;;;;;;;26.57;20.70;;;23.00;1.00;;;;;;5131591;27;20189;-57
2021/07/17 00:06:39;;;;;;;29.87;20.70;;;22.90;1.00;;;;;;5129017;27;20196;-59
2021/07/17 00:09:08;;;;;;;31.77;22.57;;;22.90;1.00;;;;;;5129844;27;20213;-57
2021/07/17 00:11:34;;;;;;;24.77;20.90;;;23.10;1.00;;;;;;5130532;27;20268;-59
2021/07/17 00:13:59;;;;;;;28.57;21.03;;;23.00;1.00;;;;;;5126782;27;20529;-58
2021/07/17 00:16:27;;;;;;;28.67;20.30;;;22.90;1.00;;;;;;5131757;27;20231;-57
2021/07/17 00:18:54;;;;;;;28.43;20.00;;;22.90;1.00;;;;;;5127517;27;20683;-59
2021/07/17 00:21:21;;;;;;;31.20;21.90;;;22.90;1.00;;;;;;5124812;27;20442;-58
2021/07/17 00:23:46;;;;;;;23.10;20.47;;;22.90;1.00;;;;;;5131244;27;20449;-57
2021/07/17 00:26:12;;;;;;;28.47;20.10;;;23.00;1.00;;;;;;5128037;27;20542;-57
2021/07/17 00:28:37;;;;;;;23.33;19.17;;;23.00;1.00;;;;;;5129202;27;20185;-57
2021/07/17 00:31:03;;;;;;;26.30;21.07;;;24.60;1.00;;;;;;5128727;27;20634;-57
2021/07/17 00:33:28;;;;;;;23.80;19.87;;;22.90;1.00;;;;;;5125467;27;20240;-58
2021/07/17 00:35:54;;;;;;;31.60;20.00;;;23.00;1.00;;;;;;5129824;27;20268;-58
2021/07/17 00:38:19;;;;;;;25.23;19.43;;;23.00;1.00;;;;;;5109282;27;20205;-58
2021/07/17 00:40:45;;;;;;;31.77;20.77;;;23.00;1.00;;;;;;5130879;27;20649;-59
2021/07/17 00:43:11;;;;;;;26.73;20.67;;;22.90;1.00;;;;;;5131467;27;20527;-58
2021/07/17 00:45:36;;;;;;;30.43;20.63;;;22.70;1.00;;;;;;5130936;27;20193;-56
2021/07/17 00:48:02;;;;;;;25.73;20.00;;;22.80;1.00;;;;;;5129881;27;20260;-57
2021/07/17 00:50:27;;;;;;;24.13;19.47;;;22.80;1.00;;;;;;5126701;27;20687;-58
2021/07/17 00:52:54;;;;;;;28.73;21.00;;;22.80;1.00;;;;;;5129968;27;20607;-58
2021/07/17 00:55:21;;;;;;;29.63;19.77;;;22.80;1.00;;;;;;5130832;27;20218;-59
2021/07/17 00:57:49;;;;;;;27.27;21.23;;;22.90;1.00;;;;;;5127999;27;20410;-58
2021/07/17 01:00:16;;;;;;;32.93;20.20;;;22.90;1.00;;;;;;5128444;27;20671;-58
2021/07/17 01:03:05;;;;;;;27.33;19.20;;;22.90;1.00;;;;;;5126607;27;20796;-58
2021/07/17 01:05:31;;;;;;;25.93;20.20;;;22.90;1.00;;;;;;5127713;27;20478;-58
2021/07/17 01:07:57;;;;;;;32.37;20.73;;;23.00;1.00;;;;;;5130540;27;20489;-58
2021/07/17 01:10:23;;;;;;;31.47;21.87;;;23.00;1.00;;;;;;5130403;27;20449;-58
2021/07/17 01:12:50;;;;;;;34.13;22.57;;;22.90;1.00;;;;;;5093302;27;20459;-57
2021/07/17 01:15:17;;;;;;;32.63;20.80;;;22.80;1.00;;;;;;5131613;27;20442;-58
2021/07/17 01:17:43;;;;;;;32.10;21.13;;;22.80;1.00;;;;;;5130457;27;20439;-57
2021/07/17 01:20:11;;;;;;;23.10;20.67;;;22.80;1.00;;;;;;5124828;27;20419;-57
2021/07/17 01:22:41;;;;;;;33.33;21.50;;;22.80;1.00;;;;;;5129683;27;20421;-57
2021/07/17 01:25:11;;;;;;;27.97;20.37;;;22.70;1.00;;;;;;5131100;27;20926;-59
2021/07/17 01:27:37;;;;;;;31.90;22.10;;;22.70;1.00;;;;;;5127546;27;20439;-57
2021/07/17 01:30:06;;;;;;;26.80;21.50;;;22.80;1.00;;;;;;5129323;27;20439;-57
2021/07/17 01:32:32;;;;;;;27.83;22.47;;;22.70;1.00;;;;;;5129443;27;20451;-57
2021/07/17 01:34:57;;;;;;;30.53;21.37;;;22.60;1.00;;;;;;5126899;27;20449;-59
2021/07/17 01:37:23;;;;;;;31.60;24.60;;;22.60;1.00;;;;;;5129365;27;20242;-59
2021/07/17 01:39:48;;;;;;;27.33;22.93;;;22.60;1.00;;;;;;5128301;27;20256;-58
2021/07/17 01:42:14;;;;;;;28.30;21.87;;;22.60;1.00;;;;;;5129508;27;20184;-57
2021/07/17 01:44:44;;;;;;;34.93;24.77;;;22.50;1.00;;;;;;5132626;27;20217;-57
2021/07/17 01:47:14;;;;;;;32.43;22.07;;;22.60;1.00;;;;;;5134934;27;20246;-58
2021/07/17 01:49:40;;;;;;;32.50;23.80;;;22.60;1.00;;;;;;5132698;27;20974;-58
2021/07/17 01:52:07;;;;;;;37.93;23.67;;;22.50;1.00;;;;;;5131710;27;20513;-58
2021/07/17 01:54:34;;;;;;;32.47;23.10;;;22.50;1.00;;;;;;5134251;27;20569;-58
2021/07/17 01:57:04;;;;;;;29.30;24.23;;;22.50;1.00;;;;;;5133550;27;20521;-58
2021/07/17 01:59:30;;;;;;;31.27;23.27;;;22.50;1.00;;;;;;5132258;27;20511;-57
2021/07/17 02:01:55;;;;;;;30.50;23.40;;;22.50;1.00;;;;;;5132184;27;20864;-57
2021/07/17 02:04:21;;;;;;;33.17;23.53;;;22.30;1.00;;;;;;5141090;27;20538;-57
2021/07/17 02:06:46;;;;;;;28.83;22.20;;;22.40;1.00;;;;;;5132918;27;20178;-59
2021/07/17 02:09:12;;;;;;;32.77;24.23;;;24.50;1.00;;;;;;5132844;27;20185;-58
2021/07/17 02:11:38;;;;;;;33.17;22.83;;;22.40;1.00;;;;;;5132792;27;20197;-58
2021/07/17 02:14:05;;;;;;;28.50;22.50;;;22.50;1.00;;;;;;5133112;27;20174;-58
2021/07/17 02:16:31;;;;;;;32.27;24.13;;;22.50;1.00;;;;;;5133948;27;22533;-59
2021/07/17 02:19:10;;;;;;;31.53;22.47;;;22.50;1.00;;;;;;5129670;27;20724;-58
2021/07/17 02:21:36;;;;;;;31.23;23.40;;;22.30;1.00;;;;;;5130206;27;20197;-58
2021/07/17 02:24:02;;;;;;;34.17;24.60;;;22.20;1.00;;;;;;5133011;27;20947;-57
2021/07/17 02:26:27;;;;;;;32.50;25.27;;;22.10;1.00;;;;;;5132041;27;20299;-59
2021/07/17 02:28:53;;;;;;;30.93;26.00;;;22.10;1.00;;;;;;5115182;27;20185;-57
2021/07/17 02:31:18;;;;;;;33.50;26.43;;;22.00;1.00;;;;;;5133047;27;20186;-57
2021/07/17 02:33:44;;;;;;;35.20;27.90;;;21.70;1.00;;;;;;5128922;27;20670;-57
2021/07/17 02:36:09;;;;;;;30.70;26.37;;;22.00;1.00;;;;;;5115358;27;20183;-58
2021/07/17 02:38:35;;;;;;;36.03;27.00;;;22.00;1.00;;;;;;5133540;27;20667;-56
2021/07/17 02:41:00;;;;;;;35.70;27.07;;;21.90;1.00;;;;;;5131823;27;20688;-58
2021/07/17 02:43:26;;;;;;;31.20;25.30;;;22.00;1.00;;;;;;5132938;27;20227;-59
2021/07/17 02:45:52;;;;;;;41.97;26.27;;;22.00;1.00;;;;;;5133454;27;20700;-58
2021/07/17 02:48:17;;;;;;;32.40;25.03;;;22.10;1.00;;;;;;5132603;27;20215;-57
2021/07/17 02:50:43;;;;;;;34.07;26.40;;;22.10;1.00;;;;;;5128428;27;20686;-58
2021/07/17 02:53:09;;;;;;;35.00;27.73;;;22.00;8.10;;;;;;5130930;27;20246;-57
2021/07/17 02:55:34;;;;;;;33.67;25.70;;;21.90;14.50;;;;;;5130217;27;20192;-58
2021/07/17 02:58:00;;;;;;;36.67;26.20;;;21.90;38.30;;;;;;5132025;27;20429;-58
2021/07/17 03:00:28;;;;;;;32.93;24.80;;;21.90;40.40;;;;;;5132857;27;20173;-59
2021/07/17 03:02:53;;;;;;;33.00;24.93;;;21.90;50.10;;;;;;5129961;27;20568;-58
2021/07/17 03:05:19;;;;;;;30.43;25.47;;;21.90;46.00;;;;;;5133157;27;20451;-58
2021/07/17 03:07:44;;;;;;;32.53;23.50;;;22.00;44.40;;;;;;5132627;27;20198;-57
2021/07/17 03:10:10;;;;;;;29.77;23.50;;;22.10;33.90;;;;;;5133414;27;20661;-57
2021/07/17 03:12:36;;;;;;;32.77;24.23;;;22.20;28.70;;;;;;5131010;27;20288;-59
2021/07/17 03:15:02;;;;;;;27.43;23.27;;;22.20;26.00;;;;;;5129047;27;20439;-59
2021/07/17 03:17:27;;;;;;;24.93;22.13;;;22.20;23.60;;;;;;5113510;27;20178;-58
2021/07/17 03:19:53;;;;;;;29.60;22.90;;;22.10;25.80;;;;;;5131712;27;20803;-56
2021/07/17 03:22:19;;;;;;;31.67;25.03;;;22.00;37.40;;;;;;5131838;27;20192;-59
2021/07/17 03:24:44;;;;;;;26.53;23.77;;;21.90;48.80;;;;;;5131634;27;20523;-58
2021/07/17 03:27:10;;;;;;;31.37;25.90;;;21.90;66.80;;;;;;5125979;27;20184;-58
2021/07/17 03:29:35;;;;;;;30.97;25.63;;;21.90;92.00;;;;;;5132837;27;20181;-57
2021/07/17 03:32:01;;;;;;;31.90;25.50;;;21.80;99.70;;;;;;5131685;27;20280;-58
2021/07/17 03:34:26;;;;;;;32.57;25.70;;;21.70;99.90;;;;;;5128323;27;20181;-58
2021/07/17 03:36:52;;;;;;;28.83;25.70;;;21.60;99.90;;;;;;5133017;27;20182;-59
2021/07/17 03:39:17;;;;;;;35.87;25.97;;;21.60;99.90;;;;;;5132194;27;20203;-59
2021/07/17 03:41:43;;;;;;;31.90;26.10;;;21.60;99.90;;;;;;5132638;27;20178;-59
2021/07/17 03:44:10;;;;;;;30.90;26.20;;;21.60;99.90;;;;;;5132525;27;20216;-58
2021/07/17 03:46:35;;;;;;;35.53;28.27;;;21.60;99.90;;;;;;5132305;27;20177;-57
2021/07/17 03:49:01;;;;;;;30.60;25.87;;;21.60;99.90;;;;;;5110342;27;20503;-57
2021/07/17 03:51:27;;;;;;;35.63;27.27;;;21.60;99.90;;;;;;5131588;27;20477;-57
2021/07/17 03:53:52;;;;;;;40.00;29.27;;;21.60;99.90;;;;;;5129260;27;20201;-58
2021/07/17 03:56:18;;;;;;;35.13;26.23;;;21.60;99.90;;;;;;5115299;27;20182;-58
2021/07/17 03:58:43;;;;;;;38.30;28.30;;;21.50;99.90;;;;;;5131634;27;20195;-58
2021/07/17 04:01:09;;;;;;;35.70;27.63;;;21.70;99.90;;;;;;5132378;27;20205;-58
2021/07/17 04:03:34;;;;;;;35.87;27.77;;;22.00;99.90;;;;;;5132407;27;20189;-59
2021/07/17 04:06:00;;;;;;;38.03;28.47;;;21.70;99.90;;;;;;5127882;27;20189;-59
2021/07/17 04:08:26;;;;;;;33.43;26.80;;;21.60;99.90;;;;;;5131695;27;20773;-57
2021/07/17 04:10:52;;;;;;;32.00;28.57;;;21.60;99.90;;;;;;5131002;27;20685;-58
2021/07/17 04:13:18;;;;;;;36.93;26.70;;;21.50;99.90;;;;;;5130785;27;20212;-57
2021/07/17 04:15:43;;;;;;;38.37;27.53;;;21.60;99.90;;;;;;5129004;27;20439;-57
2021/07/17 04:18:10;;;;;;;33.63;27.03;;;21.50;99.90;;;;;;5127402;27;20528;-56
2021/07/17 04:20:36;;;;;;;36.70;27.80;;;21.50;99.90;;;;;;5131932;27;20184;-56
2021/07/17 04:23:02;;;;;;;34.60;24.30;;;21.60;99.90;;;;;;5131333;27;20454;-56
2021/07/17 04:25:28;;;;;;;30.47;24.80;;;21.60;99.90;;;;;;5132019;27;20579;-56
2021/07/17 04:27:53;;;;;;;24.37;21.87;;;21.50;99.90;;;;;;5131244;27;20510;-56
2021/07/17 04:30:19;;;;;;;29.40;22.53;;;21.40;99.90;;;;;;5152557;27;20259;-57
2021/07/17 04:32:45;;;;;;;24.33;21.00;;;21.50;99.90;;;;;;5131013;27;20205;-56
2021/07/17 04:35:10;;;;;;;23.00;20.07;;;21.50;99.90;;;;;;5131288;27;20650;-56
2021/07/17 04:37:36;;;;;;;22.00;19.70;;;21.50;99.90;;;;;;5131886;27;20703;-57
2021/07/17 04:40:02;;;;;;;23.40;19.77;;;21.60;99.90;;;;;;5131992;27;20666;-57
2021/07/17 04:42:28;;;;;;;20.87;18.77;;;21.50;99.90;;;;;;5128298;27;20234;-56
2021/07/17 04:44:53;;;;;;;19.47;17.40;;;21.60;99.90;;;;;;5129945;27;20442;-57
2021/07/17 04:47:19;;;;;;;19.87;16.70;;;21.50;99.90;;;;;;5127597;27;20534;-58
2021/07/17 04:49:45;;;;;;;18.87;16.97;;;21.60;99.90;;;;;;5127714;27;20711;-58
2021/07/17 04:52:10;;;;;;;19.17;17.30;;;21.50;99.90;;;;;;5128869;27;20478;-57
2021/07/17 04:54:36;;;;;;;20.03;18.03;;;21.50;99.90;;;;;;5128871;27;20192;-57
2021/07/17 04:57:02;;;;;;;19.90;17.83;;;21.40;99.90;;;;;;5129653;27;20182;-56
2021/07/17 04:59:27;;;;;;;18.77;16.87;;;21.50;99.90;;;;;;5111397;27;20279;-57
2021/07/17 05:01:53;;;;;;;19.23;17.20;;;21.60;99.90;;;;;;5129574;27;20173;-57
2021/07/17 05:04:18;;;;;;;17.97;16.17;;;21.60;99.90;;;;;;5129192;27;20320;-58
2021/07/17 05:06:44;;;;;;;20.07;17.03;;;21.60;99.90;;;;;;5127555;27;20181;-56
2021/07/17 05:09:09;;;;;;;19.90;16.60;;;21.70;99.90;;;;;;5131108;27;20185;-57
2021/07/17 05:11:36;;;;;;;21.73;17.90;;;21.70;99.90;;;;;;5129302;27;20277;-56
2021/07/17 05:14:01;;;;;;;21.43;16.73;;;21.70;99.90;;;;;;5111349;27;20203;-56
2021/07/17 05:16:27;;;;;;;23.00;17.40;;;21.80;99.90;;;;;;5127771;27;20451;-57
2021/07/17 05:18:52;;;;;;;22.13;18.13;;;21.70;99.90;;;;;;5129748;27;20181;-57
2021/07/17 05:21:18;;;;;;;20.43;17.77;;;21.60;99.90;;;;;;5130616;27;20355;-56
2021/07/17 05:23:44;;;;;;;22.43;18.33;;;21.60;99.90;;;;;;5130892;27;20185;-57
2021/07/17 05:26:10;;;;;;;19.67;17.63;;;21.60;99.90;;;;;;5130508;27;20185;-56
2021/07/17 05:28:36;;;;;;;20.53;17.47;;;21.70;99.90;;;;;;5130618;27;20533;-57
2021/07/17 05:31:02;;;;;;;23.70;19.00;;;21.70;99.90;;;;;;5129636;27;20185;-57
2021/07/17 05:33:27;;;;;;;22.53;19.13;;;21.70;99.90;;;;;;5131177;27;20205;-56
2021/07/17 05:35:53;;;;;;;23.53;19.93;;;21.80;99.90;;;;;;5126757;27;20177;-56
2021/07/17 05:38:18;;;;;;;29.93;20.00;;;21.90;99.90;;;;;;5128746;27;20177;-57
2021/07/17 05:40:44;;;;;;;22.13;19.83;;;21.90;99.90;;;;;;5129150;27;20174;-57
2021/07/17 05:43:10;;;;;;;21.57;19.13;;;21.90;99.90;;;;;;5127942;27;20217;-58
2021/07/17 05:45:35;;;;;;;29.30;20.70;;;21.30;99.90;;;;;;5130694;27;20692;-56
2021/07/17 05:48:02;;;;;;;26.00;21.80;;;21.80;99.90;;;;;;5127801;27;20474;-56
2021/07/17 05:50:28;;;;;;;24.73;21.20;;;21.70;99.90;;;;;;5129334;27;20588;-57
2021/07/17 05:52:53;;;;;;;36.90;22.60;;;21.70;99.90;;;;;;5130626;27;20462;-58
2021/07/17 05:55:19;;;;;;;23.00;20.50;;;21.80;99.90;;;;;;5130665;27;20174;-58
2021/07/17 05:57:44;;;;;;;27.57;22.70;;;21.80;99.90;;;;;;5111708;27;20205;-56
2021/07/17 06:00:11;;;;;;;30.60;21.40;;;21.80;99.90;;;;;;5130924;27;20181;-57
2021/07/17 06:02:37;;;;;;;33.07;22.57;;;21.90;99.90;;;;;;5127972;27;20186;-56
2021/07/17 06:05:02;;;;;;;25.00;22.33;;;21.90;99.90;;;;;;5127514;27;20957;-56
2021/07/17 06:07:28;;;;;;;27.23;22.03;;;21.80;99.90;;;;;;5127593;27;20268;-57
2021/07/17 06:09:53;;;;;;;33.33;21.43;;;21.90;99.90;;;;;;5130335;27;20192;-57
2021/07/17 06:12:19;;;;;;;31.50;22.17;;;21.80;99.90;;;;;;5129269;27;20212;-57
2021/07/17 06:14:44;;;;;;;31.17;23.03;;;21.90;99.90;;;;;;5128972;27;20768;-57
2021/07/17 06:17:13;;;;;;;32.37;23.07;;;21.90;99.90;;;;;;5126392;27;20661;-57
2021/07/17 06:19:40;;;;;;;27.80;21.70;;;21.90;99.90;;;;;;5126444;27;20200;-58
2021/07/17 06:22:07;;;;;;;28.40;21.33;;;22.00;99.90;;;;;;5127232;27;20442;-57
2021/07/17 06:24:32;;;;;;;31.07;21.90;;;21.90;99.90;;;;;;5111995;27;20467;-56
2021/07/17 06:26:58;;;;;;;35.67;22.40;;;21.90;99.90;;;;;;5127803;27;20445;-57
2021/07/17 06:29:24;;;;;;;35.23;23.23;;;22.00;99.90;;;;;;5143927;27;20644;-57
2021/07/17 06:31:49;;;;;;;29.20;23.10;;;22.00;99.90;;;;;;5137438;27;20199;-57
2021/07/17 06:34:15;;;;;;;33.33;22.77;;;22.00;99.90;;;;;;5151973;27;20197;-58
2021/07/17 06:36:40;;;;;;;35.67;22.30;;;22.10;99.90;;;;;;5132549;27;20181;-57
2021/07/17 06:39:06;;;;;;;36.77;23.73;;;22.10;99.90;;;;;;5115060;27;20185;-57
2021/07/17 06:41:32;;;;;;;38.53;22.80;;;22.00;99.90;;;;;;5131456;27;20177;-58
2021/07/17 06:43:57;;;;;;;29.27;22.70;;;22.00;99.90;;;;;;5133428;27;20197;-57
2021/07/17 06:46:23;;;;;;;34.50;22.07;;;21.90;99.90;;;;;;5134139;27;20188;-56
2021/07/17 06:48:49;;;;;;;31.60;23.23;;;21.80;99.90;;;;;;5130599;27;20189;-55
2021/07/17 06:51:14;;;;;;;31.73;22.53;;;21.80;99.90;;;;;;5132155;27;20277;-56
2021/07/17 06:53:40;;;;;;;39.20;22.07;;;21.80;99.90;;;;;;5133692;27;20211;-58
2021/07/17 06:56:05;;;;;;;37.23;23.43;;;21.70;99.90;;;;;;5134060;27;20229;-57
2021/07/17 06:58:31;;;;;;;29.73;24.53;;;21.70;99.90;;;;;;5133043;27;20196;-56
2021/07/17 07:00:57;;;;;;;35.43;25.13;;;21.70;99.90;;;;;;5148052;27;20181;-56
2021/07/17 07:03:23;;;;;;;35.80;24.20;;;21.80;99.90;;;;;;5133786;27;20208;-57
2021/07/17 07:05:49;;;;;;;37.43;24.20;;;21.70;99.90;;;;;;5132057;27;20271;-58
2021/07/17 07:08:14;;;;;;;36.50;23.97;;;21.80;99.90;;;;;;5127894;27;20557;-59
2021/07/17 07:10:40;;;;;;;36.70;24.10;;;21.90;99.90;;;;;;5127335;27;20583;-57
2021/07/17 07:13:13;;;;;;;35.63;23.50;;;21.80;99.90;;;;;;5132120;27;20205;-56
2021/07/17 07:15:39;;;;;;;37.17;24.80;;;21.80;99.90;;;;;;5132717;27;20735;-56
2021/07/17 07:18:05;;;;;;;38.03;24.07;;;21.60;99.90;;;;;;5129361;27;20599;-56
2021/07/17 07:20:32;;;;;;;33.07;24.03;;;21.60;99.90;;;;;;5132595;27;20181;-56
2021/07/17 07:22:58;;;;;;;34.57;23.87;;;21.70;99.90;;;;;;5132945;27;20495;-56
2021/07/17 07:25:23;;;;;;;34.73;23.90;;;21.60;99.90;;;;;;5132325;27;20416;-56
2021/07/17 07:27:49;;;;;;;31.87;22.20;;;21.50;99.90;;;;;;5133225;27;20268;-56
2021/07/17 07:30:15;;;;;;;29.70;22.27;;;21.60;99.90;;;;;;5128660;27;20192;-57
2021/07/17 07:32:41;;;;;;;26.20;19.63;;;21.70;99.90;;;;;;5132315;27;20288;-55
2021/07/17 07:35:07;;;;;;;30.40;19.87;;;21.70;99.90;;;;;;5126427;27;20455;-56
2021/07/17 07:37:33;;;;;;;27.97;17.90;;;21.80;99.90;;;;;;5133032;27;20506;-57
2021/07/17 07:39:59;;;;;;;21.40;16.37;;;21.70;99.90;;;;;;5112517;27;20627;-57
2021/07/17 07:42:26;;;;;;;19.90;16.60;;;21.60;99.90;;;;;;5132389;27;20439;-57
2021/07/17 07:44:52;;;;;;;20.63;17.10;;;21.60;99.90;;;;;;5133057;27;20454;-56
2021/07/17 07:47:19;;;;;;;21.20;14.40;;;21.60;99.90;;;;;;5130116;27;20526;-58
2021/07/17 07:49:46;;;;;;;15.07;13.47;;;21.40;99.90;;;;;;5111811;27;20484;-56
2021/07/17 07:52:12;;;;;;;14.40;12.90;;;21.40;99.90;;;;;;5130907;27;20470;-57
2021/07/17 07:54:38;;;;;;;15.00;13.50;;;21.40;99.90;;;;;;5130222;27;20438;-56
2021/07/17 07:57:04;;;;;;;15.40;13.70;;;21.50;99.90;;;;;;5131114;27;20946;-58
2021/07/17 07:59:30;;;;;;;15.97;13.03;;;21.40;99.90;;;;;;5148579;27;20526;-57
2021/07/17 08:01:56;;;;;;;13.77;12.57;;;21.40;99.90;;;;;;5131861;27;20441;-58
2021/07/17 08:04:22;;;;;;;14.80;13.40;;;21.40;99.90;;;;;;5130072;27;20436;-57
2021/07/17 08:06:48;;;;;;;15.17;13.67;;;21.30;99.90;;;;;;5136246;27;20196;-57
2021/07/17 08:09:13;;;;;;;15.00;13.53;;;21.30;99.90;;;;;;5131127;27;20186;-57
2021/07/17 08:11:39;;;;;;;15.50;13.97;;;21.40;99.90;;;;;;5131227;27;20200;-56
2021/07/17 08:14:05;;;;;;;14.47;13.00;;;21.30;99.90;;;;;;5130137;27;20197;-56
2021/07/17 08:16:30;;;;;;;15.43;13.37;;;21.40;99.90;;;;;;5131486;27;20204;-57
2021/07/17 08:18:56;;;;;;;15.50;13.90;;;21.50;99.90;;;;;;5127534;27;20212;-57
2021/07/17 08:21:22;;;;;;;15.63;13.80;;;21.60;99.90;;;;;;5111538;27;20220;-58
2021/07/17 08:23:48;;;;;;;15.90;14.30;;;21.70;99.90;;;;;;5130592;27;20224;-58
2021/07/17 08:26:14;;;;;;;17.77;14.10;;;21.70;99.90;;;;;;5131175;27;20474;-57
2021/07/17 08:28:39;;;;;;;16.80;14.90;;;21.80;99.90;;;;;;5143044;27;20242;-58
2021/07/17 08:31:05;;;;;;;17.10;15.30;;;21.90;99.90;;;;;;5135127;27;20489;-58
2021/07/17 08:33:32;;;;;;;19.83;16.40;;;21.90;99.90;;;;;;5131173;27;20205;-56
2021/07/17 08:35:58;;;;;;;17.67;15.93;;;21.80;99.90;;;;;;5131459;27;20184;-57
2021/07/17 08:38:23;;;;;;;21.60;15.90;;;21.80;99.90;;;;;;5131063;27;20426;-56
2021/07/17 08:40:54;;;;;;;17.73;15.63;;;21.80;99.90;;;;;;5130408;27;20891;-58
2021/07/17 08:43:20;;;;;;;16.10;14.43;;;21.80;99.90;;;;;;5138713;27;20557;-57
2021/07/17 08:45:47;;;;;;;17.87;16.07;;;21.80;99.90;;;;;;5129974;27;20494;-57
2021/07/17 08:48:14;;;;;;;18.00;15.60;;;21.70;99.90;;;;;;5129501;27;20442;-59
2021/07/17 08:50:40;;;;;;;23.27;15.97;;;21.70;99.90;;;;;;5145920;27;20463;-57
2021/07/17 08:53:07;;;;;;;20.07;15.50;;;21.70;99.90;;;;;;5109950;27;20541;-57
2021/07/17 08:55:34;;;;;;;19.93;15.33;;;21.90;99.90;;;;;;5128159;27;20696;-57
2021/07/17 08:58:00;;;;;;;17.17;14.97;;;21.80;99.90;;;;;;5140031;27;20439;-57
2021/07/17 09:00:35;;;;;;;18.43;15.90;;;21.90;99.90;;;;;;5131428;27;20512;-57
2021/07/17 09:03:08;;;;;;;22.40;14.83;;;21.90;99.90;;;;;;5131300;27;20442;-56
2021/07/17 09:05:53;;;;;;;17.70;15.70;;;21.90;99.90;;;;;;5129988;27;20419;-58
2021/07/17 09:08:20;;;;;;;17.40;15.30;;;21.80;99.90;;;;;;5131200;27;20785;-58
2021/07/17 09:10:51;;;;;;;18.20;16.37;;;22.00;99.90;;;;;;5113036;27;20522;-56
2021/07/17 09:13:29;;;;;;;19.27;17.07;;;22.00;99.90;;;;;;5112864;27;20516;-57
2021/07/17 09:16:04;;;;;;;21.93;17.43;;;22.00;99.90;;;;;;5130327;27;20449;-57
2021/07/17 09:18:52;;;;;;;27.70;20.43;;;21.90;99.90;;;;;;5106519;27;20483;-57
2021/07/17 09:21:33;;;;;;;26.93;21.43;;;21.80;99.90;;;;;;5132583;27;20430;-56
2021/07/17 09:24:01;;;;;;;30.57;21.63;;;21.70;99.90;;;;;;5127816;27;20413;-57
2021/07/17 09:26:35;;;;;;;29.67;23.40;;;21.70;99.90;;;;;;5130102;27;20453;-58
2021/07/17 09:29:11;;;;;;;32.00;22.50;;;21.60;99.90;;;;;;5128333;27;20457;-57
2021/07/17 09:31:49;;;;;;;31.97;22.57;;;21.80;99.90;;;;;;5128330;27;20445;-56
2021/07/17 09:34:16;;;;;;;38.60;24.47;;;23.10;99.90;;;;;;5128540;27;20454;-57
2021/07/17 09:36:54;;;;;;;28.47;23.90;;;22.00;99.90;;;;;;5129663;27;20462;-58
2021/07/17 09:39:22;;;;;;;30.43;21.80;;;21.90;99.90;;;;;;5130075;27;20556;-58
2021/07/17 09:41:59;;;;;;;31.17;23.10;;;21.90;99.90;;;;;;5130902;27;21037;-56
2021/07/17 09:44:26;;;;;;;35.07;22.47;;;22.00;99.90;;;;;;5129795;27;20426;-58
2021/07/17 09:46:52;;;;;;;33.47;23.50;;;22.10;99.90;;;;;;5130219;27;20947;-56
2021/07/17 09:49:19;;;;;;;39.47;26.30;;;22.10;99.90;;;;;;5127755;27;20447;-57
2021/07/17 09:51:45;;;;;;;35.43;25.83;;;22.00;99.90;;;;;;5141618;27;20215;-55
2021/07/17 09:54:11;;;;;;;35.77;27.20;;;22.00;99.90;;;;;;5130940;27;20772;-58
2021/07/17 09:56:40;;;;;;;42.50;27.43;;;22.00;99.90;;;;;;5130822;27;20462;-57
2021/07/17 09:59:11;;;;;;;41.13;27.60;;;21.90;99.90;;;;;;5131073;27;20563;-58
2021/07/17 10:01:41;;;;;;;36.00;28.03;;;21.90;99.90;;;;;;5130852;27;20996;-56
2021/07/17 10:04:14;;;;;;;41.17;27.27;;;22.00;99.90;;;;;;5141041;27;20787;-56
2021/07/17 10:06:59;;;;;;;47.60;30.43;;;21.80;99.90;;;;;;5155462;27;20428;-57
2021/07/17 10:09:35;;;;;;;41.10;28.97;;;21.80;99.90;;;;;;5131846;27;20437;-58
2021/07/17 10:12:03;;;;;;;42.53;30.00;;;21.70;99.90;;;;;;5131348;27;20900;-56
2021/07/17 10:14:33;;;;;;;44.77;31.50;;;21.90;99.90;;;;;;5134536;27;20434;-57
2021/07/17 10:17:22;;;;;;;41.07;29.10;;;21.90;99.90;;;;;;5134785;27;20430;-56
2021/07/17 10:19:48;;;;;;;46.87;29.80;;;21.90;99.90;;;;;;5133728;27;20920;-57
2021/07/17 10:22:13;;;;;;;44.90;30.57;;;21.90;99.90;;;;;;5134576;27;20500;-56
2021/07/17 10:24:39;;;;;;;44.00;28.20;;;21.90;99.90;;;;;;5134745;27;20215;-56
2021/07/17 10:27:05;;;;;;;38.30;27.80;;;22.00;99.90;;;;;;5134691;27;20177;-56
2021/07/17 10:29:31;;;;;;;40.57;28.77;;;22.00;99.90;;;;;;5134570;27;20521;-57
2021/07/17 10:31:59;;;;;;;41.63;28.37;;;22.00;99.90;;;;;;5136647;27;22692;-56
2021/07/17 10:34:25;;;;;;;41.20;29.80;;;22.00;99.90;;;;;;5154977;27;20205;-57
2021/07/17 10:36:57;;;;;;;46.90;28.20;;;22.00;99.90;;;;;;5119958;27;20421;-58
2021/07/17 10:39:25;;;;;;;47.77;28.37;;;22.00;99.90;;;;;;5134368;27;20445;-58
2021/07/17 10:41:51;;;;;;;42.50;30.30;;;22.00;99.90;;;;;;5115367;27;20598;-58
2021/07/17 10:44:37;;;;;;;44.83;28.20;;;22.20;99.90;;;;;;5134040;27;20421;-58
2021/07/17 10:47:07;;;;;;;39.40;29.33;;;22.30;99.90;;;;;;5115580;27;20430;-58
2021/07/17 10:49:39;;;;;;;41.97;30.33;;;22.30;99.90;;;;;;5134160;27;20431;-56
2021/07/17 10:52:06;;;;;;;44.77;31.07;;;22.40;99.90;;;;;;5133691;27;20560;-56
2021/07/17 10:54:31;;;;;;;45.97;31.10;;;22.20;99.90;;;;;;5132322;27;20409;-57
2021/07/17 10:56:58;;;;;;;46.07;31.97;;;22.10;99.90;;;;;;5133733;27;20444;-57
2021/07/17 10:59:23;;;;;;;50.20;32.40;;;22.10;99.90;;;;;;5133024;27;20577;-57
2021/07/17 11:02:03;;;;;;;40.37;31.33;;;22.00;99.90;;;;;;5138124;27;20412;-57
2021/07/17 11:04:31;;;;;;;50.07;33.60;;;22.10;99.90;;;;;;5131433;27;20174;-56
2021/07/17 11:07:17;;;;;;;51.87;34.97;;;22.30;99.90;;;;;;5127355;27;20421;-57
2021/07/17 11:09:56;;;;;;;54.30;34.57;;;22.40;99.90;;;;;;5132527;27;20442;-58
2021/07/17 11:12:25;;;;;;;59.57;34.27;;;22.50;99.90;;;;;;5133074;27;20458;-57
2021/07/17 11:14:55;;;;;;;53.60;34.33;;;22.50;99.90;;;;;;5114342;27;20645;-57
2021/07/17 11:17:39;;;;;;;55.70;33.80;;;22.60;99.90;;;;;;5133012;27;20413;-57
2021/07/17 11:20:16;;;;;;;55.73;37.30;;;22.50;99.90;;;;;;5115020;27;20616;-57
2021/07/17 11:22:42;;;;;;;61.27;36.03;;;22.60;99.90;;;;;;5133433;27;20687;-57
2021/07/17 11:25:08;;;;;;;56.77;34.67;;;22.60;99.90;;;;;;5136014;27;20441;-57
2021/07/17 11:27:40;;;;;;;53.70;35.10;;;22.60;99.90;;;;;;5154035;27;20421;-57
2021/07/17 11:30:15;;;;;;;55.10;34.00;;;22.60;99.90;;;;;;5130811;27;20188;-57
2021/07/17 11:33:06;;;;;;;56.43;36.03;;;22.50;99.90;;;;;;5129313;27;20451;-58
2021/07/17 11:35:36;;;;;;;54.53;34.90;;;22.60;99.90;;;;;;5132512;27;20413;-58
2021/07/17 11:38:04;;;;;;;53.10;35.97;;;22.60;99.90;;;;;;5131688;27;20405;-57
2021/07/17 11:40:30;;;;;;;51.80;34.20;;;22.80;99.90;;;;;;5132672;27;20454;-57
2021/07/17 11:43:07;;;;;;;49.40;33.00;;;23.00;99.90;;;;;;5148423;27;20434;-57
2021/07/17 11:45:33;;;;;;;46.60;32.30;;;23.00;99.90;;;;;;5153499;27;20937;-58
2021/07/17 11:48:14;;;;;;;45.90;33.43;;;23.00;99.90;;;;;;5148448;27;20890;-59
2021/07/17 11:50:42;;;;;;;49.57;33.67;;;23.10;99.90;;;;;;5127332;27;20807;-59
2021/07/17 11:53:16;;;;;;;57.67;34.70;;;23.20;99.90;;;;;;5139678;27;20466;-56
2021/07/17 11:55:42;;;;;;;53.27;33.87;;;23.30;99.90;;;;;;5132141;27;20426;-57
2021/07/17 11:58:16;;;;;;;49.07;31.93;;;23.40;99.90;;;;;;5139240;27;20430;-57
2021/07/17 12:00:41;;;;;;;45.53;32.30;;;23.50;99.90;;;;;;5153183;27;20494;-57
2021/07/17 12:03:07;;;;;;;41.50;31.73;;;23.60;99.90;;;;;;5130360;27;20446;-57
2021/07/17 12:05:34;;;;;;;54.33;34.30;;;23.50;99.90;;;;;;5131006;27;20942;-57
2021/07/17 12:08:00;;;;;;;54.50;34.63;;;23.50;99.90;;;;;;5113647;27;20484;-58
2021/07/17 12:10:28;;;;;;;49.40;33.00;;;23.40;99.90;;;;;;5132595;27;20515;-57
2021/07/17 12:12:59;;;;;;;49.40;34.83;;;23.30;99.90;;;;;;5132108;27;20260;-56
2021/07/17 12:15:32;;;;;;;49.33;33.37;;;23.30;99.90;;;;;;5128720;27;20443;-57
2021/07/17 12:17:59;;;;;;;41.30;30.87;;;23.40;99.90;;;;;;5131818;27;20427;-57
2021/07/17 12:20:26;;;;;;;45.53;31.30;;;23.40;99.90;;;;;;5132020;27;20442;-57
2021/07/17 12:23:11;;;;;;;43.43;32.67;;;23.30;99.90;;;;;;5130197;27;20778;-58
2021/07/17 12:25:40;;;;;;;39.40;29.90;;;23.30;99.90;;;;;;5125555;27;20936;-56
2021/07/17 12:28:12;;;;;;;43.27;31.10;;;23.40;99.90;;;;;;5118622;27;20456;-59
2021/07/17 12:30:39;;;;;;;41.53;30.73;;;23.40;99.90;;;;;;5125607;27;20449;-58